Flora, IN (46929)

12:11 AM EDT on August 30, 2014 (GMT -0400)
Carroll Jr/Sr High School | Change Station
CLOSE
Current Station
Personal Weather Station
Location: Flora, IN
Elevation: 715 ft
Nearby Weather Stations

Elev 715 ft 40.55 °N, 86.48 °W | Updated 44 seconds ago

Partly Cloudy
Partly Cloudy
73.9 °F
Feels Like 76 °F
N
3.2
Wind Variable Wind from SE
Gusts 4.0 mph

Today
High -- | Low -- °F
--% Chance of Precip.
Yesterday
High -- | Low -- °F
Precip. -- in
7:11 AM 8:21 PM
Waxing Crescent, 19% visible
Pressure 29.98 in
Visibility 7.0 miles
Clouds Clear
Heat Index 76 °F
Dew Point 64 °F
Humidity 70%
Rainfall 0.00 in
Snow Depth Not available.
UV 0 out of 12
Pollen 10.60 out of 12
Air Quality Not available.
Flu Activity Not available.
METAR KGGP 300355Z AUTO 13004KT 7SM CLR 21/20 A2998 RMK AO2

More Conditions Fewer Conditions

Pressure 29.98 in
Visibility 7.0 miles
Clouds Clear
Heat Index 76 °F
Dew Point 64 °F
Humidity 70%
Rainfall 0.00 in
Snow Depth Not available.
UV 0 out of 12
Pollen 10.60 out of 12
Air Quality Not available.
Flu Activity Not available.
METAR KGGP 300355Z AUTO 13004KT 7SM CLR 21/20 A2998 RMK AO2

More Conditions Fewer Conditions

10-Day Weather Forecast

Almanac

Astronomy

Aug. 30, 2014 Rise Set
Actual Time 7:11 AM EDT 8:21 PM EDT
Civil Twilight 6:43 AM EDT 8:49 PM EDT
Nautical Twilight 6:09 AM EDT 9:22 PM EDT
Astronomical Twilight 5:34 AM EDT 9:57 PM EDT
Moon 11:59 AM EDT 10:53 PM EDT
Length of Visible Light 14h 06m
Length of Day
13h 09m
Tomorrow will be 2m 34s shorter.
Waxing Crescent, 19% of the Moon is Illuminated
Today
Waxing Crescent
Sep 2
First Quarter
Sep 8
Full
Sep 15
Last Quarter
Sep 24
New

Yesterday's Extremes

State Highs State Lows

Community

WunderPhotos

Upload Photos

1,748,448 photos uploaded!

Nearby

Snow Depth

Station Depth Elevation
No new snow has been reported.

Earthquake Activity

City Distance Mag. Time & Date
No recent earthquake activity has been reported nearby.
Minimum magnitude displayed is 2.5.

Coastal Water Temperatures

Place Temperature
No Stations Reporting

Nearby Weather Stations